METAR Data
IDs: Format: Raw Decoded Include TAF

Data at: 0831 UTC 01 Aug 2021

EHLE 010825Z AUTO 24009KT 210V280 9999 FEW010 SCT013 BKN015 18/15 Q1007 BECMG 9999 NSW SCT008